Time;durP1;ratioP1;P1;durP2;ratioP2;P2;SDS_P1;SDS_P2;PMS_P1;PMS_P2;Temp;Humidity;BMP_temperature;BMP_pressure;BME280_temperature;BME280_humidity;BME280_pressure;Samples;Min_cycle;Max_cycle;Signal;HPM_P1;HPM_P2
2023/12/15 00:01:03;;;;;;;25.95;14.23;;;6.20;99.90;;;;;;6302556;22;20043;-81
2023/12/15 00:03:29;;;;;;;25.65;14.10;;;6.10;99.90;;;;;;6302655;22;20411;-82
2023/12/15 00:05:57;;;;;;;27.38;13.57;;;6.20;99.90;;;;;;6302421;22;20062;-82
2023/12/15 00:08:23;;;;;;;27.92;14.18;;;6.20;99.90;;;;;;6302147;22;20015;-82
2023/12/15 00:10:49;;;;;;;27.58;14.98;;;6.20;99.90;;;;;;6302666;22;20012;-82
2023/12/15 00:13:15;;;;;;;26.05;13.18;;;6.30;99.90;;;;;;6303956;22;20022;-82
2023/12/15 00:15:41;;;;;;;30.98;14.40;;;6.20;99.90;;;;;;6301985;22;20019;-82
2023/12/15 00:18:07;;;;;;;29.00;14.65;;;6.20;99.90;;;;;;6303461;22;20086;-82
2023/12/15 00:20:32;;;;;;;26.92;13.80;;;6.20;99.90;;;;;;6302539;22;20384;-81
2023/12/15 00:22:58;;;;;;;26.13;13.77;;;6.20;99.90;;;;;;6304304;22;20504;-81
2023/12/15 00:25:24;;;;;;;27.15;14.73;;;6.30;99.90;;;;;;6302383;22;20077;-82
2023/12/15 00:27:49;;;;;;;27.52;14.35;;;6.20;99.90;;;;;;6302475;22;20660;-82
2023/12/15 00:30:15;;;;;;;25.38;15.00;;;6.20;99.90;;;;;;6302057;22;20055;-82
2023/12/15 00:32:41;;;;;;;29.25;14.60;;;6.30;99.90;;;;;;6302331;22;20065;-82
2023/12/15 00:35:07;;;;;;;27.02;13.77;;;6.20;99.90;;;;;;6301979;22;20019;-81
2023/12/15 00:37:33;;;;;;;25.77;13.88;;;6.30;99.90;;;;;;6303914;22;20063;-81
2023/12/15 00:39:58;;;;;;;24.80;13.60;;;6.20;99.90;;;;;;6302171;22;20011;-81
2023/12/15 00:42:24;;;;;;;23.67;14.20;;;6.20;99.90;;;;;;6303955;22;20021;-82
2023/12/15 00:44:50;;;;;;;25.30;13.68;;;6.20;99.90;;;;;;6302139;22;20019;-82
2023/12/15 00:47:16;;;;;;;26.48;13.02;;;6.30;99.90;;;;;;6302164;22;20027;-82
2023/12/15 00:49:42;;;;;;;23.63;13.63;;;6.30;99.90;;;;;;6303713;22;20026;-82
2023/12/15 00:52:07;;;;;;;21.67;14.27;;;6.30;99.90;;;;;;6302035;22;20466;-81
2023/12/15 00:54:33;;;;;;;25.70;13.82;;;6.30;99.90;;;;;;6302040;22;20086;-81
2023/12/15 00:56:59;;;;;;;24.67;14.05;;;6.40;99.90;;;;;;6301784;22;20023;-82
2023/12/15 00:59:26;;;;;;;23.67;13.35;;;6.40;99.90;;;;;;6302125;22;20435;-82
2023/12/15 01:01:51;;;;;;;24.08;13.98;;;6.40;99.90;;;;;;6304010;22;20011;-82
2023/12/15 01:04:17;;;;;;;23.95;13.25;;;6.40;99.90;;;;;;6301815;22;20023;-81
2023/12/15 01:06:44;;;;;;;21.85;13.63;;;6.40;99.90;;;;;;6301974;22;20015;-81
2023/12/15 01:09:09;;;;;;;25.80;13.38;;;6.40;99.90;;;;;;6302130;22;20015;-81
2023/12/15 01:11:35;;;;;;;27.13;13.55;;;6.50;99.90;;;;;;6301845;22;20461;-81
2023/12/15 01:14:01;;;;;;;22.23;13.88;;;6.50;99.90;;;;;;6301967;22;20019;-82
2023/12/15 01:16:26;;;;;;;27.30;14.00;;;6.40;99.90;;;;;;6302104;22;20036;-82
2023/12/15 01:18:52;;;;;;;25.60;13.88;;;6.50;99.90;;;;;;6301842;22;20023;-82
2023/12/15 01:21:18;;;;;;;27.40;14.57;;;6.50;99.90;;;;;;6302308;22;20038;-81
2023/12/15 01:23:43;;;;;;;28.67;14.13;;;6.50;99.90;;;;;;6302280;22;20018;-81
2023/12/15 01:26:09;;;;;;;25.48;14.48;;;6.50;99.90;;;;;;6302079;22;20023;-82
2023/12/15 01:28:35;;;;;;;32.53;14.63;;;6.60;99.90;;;;;;6301648;22;20023;-82
2023/12/15 01:31:01;;;;;;;23.90;14.65;;;6.60;99.90;;;;;;6303361;22;20076;-82
2023/12/15 01:33:27;;;;;;;26.35;14.10;;;6.60;99.90;;;;;;6301478;22;20015;-82
2023/12/15 01:35:54;;;;;;;24.33;13.60;;;6.60;99.90;;;;;;6301492;22;20026;-81
2023/12/15 01:38:19;;;;;;;25.67;14.30;;;6.60;99.90;;;;;;6301370;22;20019;-81
2023/12/15 01:40:45;;;;;;;27.90;14.65;;;6.60;99.90;;;;;;6303353;22;20097;-82
2023/12/15 01:43:11;;;;;;;26.70;16.35;;;6.60;99.90;;;;;;6301707;22;20023;-82
2023/12/15 01:45:36;;;;;;;24.38;14.65;;;6.60;99.90;;;;;;6301528;22;20015;-82
2023/12/15 01:48:02;;;;;;;25.30;14.48;;;6.70;99.90;;;;;;6301486;22;20443;-82
2023/12/15 01:50:28;;;;;;;24.65;15.02;;;6.70;99.90;;;;;;6303655;22;20011;-81
2023/12/15 01:52:54;;;;;;;25.83;15.30;;;6.60;99.90;;;;;;6301624;22;20431;-82
2023/12/15 01:55:19;;;;;;;28.00;14.98;;;6.70;99.90;;;;;;6301752;22;20488;-82
2023/12/15 01:57:45;;;;;;;24.42;14.80;;;6.60;99.90;;;;;;6303408;22;20041;-81
2023/12/15 02:00:11;;;;;;;26.10;16.05;;;6.70;99.90;;;;;;6301835;22;20019;-82
2023/12/15 02:02:37;;;;;;;31.40;15.70;;;6.70;99.90;;;;;;6301628;22;20019;-82
2023/12/15 02:05:04;;;;;;;23.58;14.60;;;6.70;99.90;;;;;;6303105;22;20015;-82
2023/12/15 02:07:29;;;;;;;30.95;15.73;;;6.70;99.90;;;;;;6303302;22;20019;-81
2023/12/15 02:09:56;;;;;;;22.90;15.50;;;6.70;99.90;;;;;;6303149;22;20335;-82
2023/12/15 02:12:22;;;;;;;32.13;16.48;;;6.80;99.90;;;;;;6301342;22;20019;-82
2023/12/15 02:14:47;;;;;;;34.47;16.40;;;6.80;99.90;;;;;;6301317;22;20054;-81
2023/12/15 02:17:13;;;;;;;26.60;15.63;;;6.80;99.90;;;;;;6300901;22;20066;-82
2023/12/15 02:19:39;;;;;;;25.88;16.73;;;6.80;99.90;;;;;;6301238;22;20011;-81
2023/12/15 02:22:05;;;;;;;29.75;16.98;;;6.80;99.90;;;;;;6301272;22;20022;-82
2023/12/15 02:24:31;;;;;;;28.52;15.85;;;6.80;99.90;;;;;;6301207;22;20642;-82
2023/12/15 02:26:56;;;;;;;26.33;15.55;;;6.80;99.90;;;;;;6301282;22;20050;-81
2023/12/15 02:29:23;;;;;;;32.75;17.13;;;6.80;99.90;;;;;;6300907;22;20031;-82
2023/12/15 02:31:48;;;;;;;29.00;16.90;;;6.90;99.90;;;;;;6300882;22;20019;-82
2023/12/15 02:34:14;;;;;;;28.27;16.27;;;6.90;99.90;;;;;;6301107;22;20343;-82
2023/12/15 02:36:40;;;;;;;33.17;16.80;;;6.90;99.90;;;;;;6300901;22;20011;-82
2023/12/15 02:39:06;;;;;;;29.20;16.38;;;7.00;99.90;;;;;;6300993;22;20519;-82
2023/12/15 02:41:32;;;;;;;26.75;17.05;;;7.00;99.90;;;;;;6301019;22;20664;-82
2023/12/15 02:43:58;;;;;;;24.70;16.77;;;7.00;99.90;;;;;;6301134;22;20076;-82
2023/12/15 02:46:24;;;;;;;28.15;17.10;;;6.90;99.90;;;;;;6300690;22;20015;-82
2023/12/15 02:48:50;;;;;;;30.55;17.30;;;7.00;99.90;;;;;;6301429;22;20011;-82
2023/12/15 02:51:29;;;;;;;30.00;17.15;;;7.00;99.90;;;;;;6274734;22;20050;-82
2023/12/15 02:53:58;;;;;;;36.28;17.15;;;7.00;99.90;;;;;;6301239;22;20064;-82
2023/12/15 02:56:23;;;;;;;36.72;19.05;;;7.00;99.90;;;;;;6301100;22;20325;-82
2023/12/15 02:58:49;;;;;;;30.67;18.23;;;7.00;99.90;;;;;;6301075;22;20030;-81
2023/12/15 03:01:15;;;;;;;29.17;17.52;;;7.00;99.90;;;;;;6300689;22;20022;-82
2023/12/15 03:03:41;;;;;;;27.63;16.42;;;7.00;99.90;;;;;;6300963;22;20092;-82
2023/12/15 03:06:07;;;;;;;34.85;18.60;;;7.00;99.90;;;;;;6302630;22;20023;-82
2023/12/15 03:08:32;;;;;;;32.17;17.48;;;7.10;99.90;;;;;;6300957;22;20029;-82
2023/12/15 03:10:58;;;;;;;32.30;18.45;;;7.10;99.90;;;;;;6300986;22;20076;-82
2023/12/15 03:13:25;;;;;;;32.90;17.52;;;7.10;99.90;;;;;;6300731;22;20026;-82
2023/12/15 03:15:51;;;;;;;36.45;19.00;;;7.10;99.90;;;;;;6302218;22;20015;-82
2023/12/15 03:18:16;;;;;;;37.63;19.30;;;7.10;99.90;;;;;;6302860;22;20094;-82
2023/12/15 03:20:44;;;;;;;30.35;18.45;;;7.10;99.90;;;;;;6302593;22;20463;-82
2023/12/15 03:23:10;;;;;;;32.30;19.08;;;7.10;99.90;;;;;;6300716;22;20015;-82
2023/12/15 03:25:36;;;;;;;37.38;17.88;;;7.10;99.90;;;;;;6300607;22;20019;-82
2023/12/15 03:28:01;;;;;;;48.53;20.02;;;7.10;99.90;;;;;;6300804;22;20220;-82
2023/12/15 03:30:27;;;;;;;36.85;18.45;;;7.10;99.90;;;;;;6300019;22;20023;-83
2023/12/15 03:32:53;;;;;;;39.88;19.83;;;7.20;99.90;;;;;;6303058;22;20070;-82
2023/12/15 03:35:19;;;;;;;34.50;18.48;;;7.20;99.90;;;;;;6302736;22;20458;-82
2023/12/15 03:37:45;;;;;;;33.40;18.77;;;7.10;99.90;;;;;;6300603;22;20015;-83
2023/12/15 03:40:11;;;;;;;42.10;19.65;;;7.20;99.90;;;;;;6300808;22;20023;-83
2023/12/15 03:42:37;;;;;;;41.55;20.52;;;7.20;99.90;;;;;;6300808;22;20026;-83
2023/12/15 03:45:03;;;;;;;35.13;18.92;;;7.10;99.90;;;;;;6300528;22;20019;-83
2023/12/15 03:47:29;;;;;;;34.20;19.20;;;7.20;99.90;;;;;;6300674;22;20443;-83
2023/12/15 03:49:55;;;;;;;33.95;19.60;;;7.20;99.90;;;;;;6302506;22;20012;-82
2023/12/15 03:52:21;;;;;;;37.42;20.52;;;7.20;99.90;;;;;;6300807;22;20110;-83
2023/12/15 03:54:46;;;;;;;37.58;20.17;;;7.20;99.90;;;;;;6300917;22;20415;-83
2023/12/15 03:57:12;;;;;;;39.45;20.00;;;7.20;99.90;;;;;;6300435;22;20094;-83
2023/12/15 03:59:40;;;;;;;38.55;19.67;;;7.20;99.90;;;;;;6300499;22;20019;-83
2023/12/15 04:02:11;;;;;;;45.30;21.30;;;7.30;99.90;;;;;;6301421;22;20022;-83
2023/12/15 04:04:37;;;;;;;39.42;20.83;;;7.20;99.90;;;;;;6302772;22;20045;-83
2023/12/15 04:07:03;;;;;;;44.35;22.17;;;7.20;99.90;;;;;;6302678;22;20047;-83
2023/12/15 04:09:29;;;;;;;42.30;21.55;;;7.30;99.90;;;;;;6302765;22;20034;-84
2023/12/15 04:11:55;;;;;;;42.70;21.05;;;7.20;99.90;;;;;;6304826;22;20359;-82
2023/12/15 04:14:21;;;;;;;45.58;20.98;;;7.20;99.90;;;;;;6302665;22;20015;-82
2023/12/15 04:16:47;;;;;;;46.08;22.70;;;7.20;99.90;;;;;;6302251;22;20015;-82
2023/12/15 04:19:12;;;;;;;42.38;22.80;;;7.30;99.90;;;;;;6302411;22;20015;-82
2023/12/15 04:21:38;;;;;;;40.10;21.20;;;7.30;99.90;;;;;;6302613;22;20712;-82
2023/12/15 04:24:04;;;;;;;46.72;22.58;;;7.30;99.90;;;;;;6302435;22;20166;-82
2023/12/15 04:26:29;;;;;;;41.83;20.95;;;7.30;99.90;;;;;;6302299;22;20023;-82
2023/12/15 04:28:56;;;;;;;48.30;22.33;;;7.20;99.90;;;;;;6302109;22;20023;-82
2023/12/15 04:31:21;;;;;;;53.75;22.20;;;7.30;99.90;;;;;;6302237;22;20038;-83
2023/12/15 04:33:47;;;;;;;46.08;21.75;;;7.20;99.90;;;;;;6302211;22;20451;-82
2023/12/15 04:36:13;;;;;;;52.55;22.67;;;7.30;99.90;;;;;;6303779;22;20015;-82
2023/12/15 04:38:38;;;;;;;44.10;22.45;;;7.30;99.90;;;;;;6302720;22;20029;-82
2023/12/15 04:41:04;;;;;;;45.53;23.20;;;7.30;99.90;;;;;;6302385;22;20021;-83
2023/12/15 04:43:30;;;;;;;49.03;22.67;;;7.30;99.90;;;;;;6302197;22;20023;-83
2023/12/15 04:45:56;;;;;;;45.30;21.95;;;7.30;99.90;;;;;;6303109;22;20018;-91
2023/12/15 04:48:22;;;;;;;45.28;21.30;;;7.40;99.90;;;;;;6305147;22;20132;-88
2023/12/15 04:50:48;;;;;;;45.67;21.95;;;7.30;99.90;;;;;;6305849;22;20158;-89
2023/12/15 04:53:13;;;;;;;56.65;22.50;;;7.30;99.90;;;;;;6303300;22;20011;-86
2023/12/15 04:55:39;;;;;;;48.75;21.20;;;7.30;99.90;;;;;;6303572;22;20041;-87
2023/12/15 04:58:06;;;;;;;54.28;21.45;;;7.40;99.90;;;;;;6303332;22;20147;-85
2023/12/15 05:00:31;;;;;;;42.17;21.92;;;7.40;99.90;;;;;;6303375;22;20019;-86
2023/12/15 05:02:57;;;;;;;46.15;23.08;;;7.40;99.90;;;;;;6303460;22;20015;-86
2023/12/15 05:05:23;;;;;;;48.33;20.85;;;7.40;99.90;;;;;;6303104;22;20023;-88
2023/12/15 05:07:49;;;;;;;46.67;21.40;;;7.50;99.90;;;;;;6303378;22;20018;-86
2023/12/15 05:10:15;;;;;;;44.70;22.23;;;7.40;99.90;;;;;;6302921;22;20030;-88
2023/12/15 05:12:41;;;;;;;46.00;21.98;;;7.40;99.90;;;;;;6303312;22;20015;-88
2023/12/15 05:15:07;;;;;;;52.13;23.20;;;7.40;99.90;;;;;;6303230;22;20029;-86
2023/12/15 05:17:32;;;;;;;49.38;21.00;;;7.40;99.90;;;;;;6303121;22;20414;-87
2023/12/15 05:19:58;;;;;;;48.03;20.40;;;7.40;99.90;;;;;;6303472;22;20025;-86
2023/12/15 05:22:24;;;;;;;49.58;22.88;;;7.40;99.90;;;;;;6303743;22;20019;-87
2023/12/15 05:24:51;;;;;;;47.65;23.55;;;7.40;99.90;;;;;;6303560;22;20019;-88
2023/12/15 05:27:17;;;;;;;53.53;22.05;;;7.40;99.90;;;;;;6305438;22;20026;-88
2023/12/15 05:29:46;;;;;;;48.50;21.52;;;7.40;99.90;;;;;;6303117;22;20057;-87
2023/12/15 05:32:13;;;;;;;46.58;21.48;;;7.50;99.90;;;;;;6303491;22;20034;-89
2023/12/15 05:34:39;;;;;;;48.10;21.52;;;7.40;99.90;;;;;;6303852;22;20146;-86
2023/12/15 05:37:05;;;;;;;51.70;22.42;;;7.40;99.90;;;;;;6302990;22;20037;-86
2023/12/15 05:39:30;;;;;;;50.05;22.77;;;7.40;99.90;;;;;;6302550;22;20023;-87
2023/12/15 05:41:56;;;;;;;48.13;22.45;;;7.40;99.90;;;;;;6303205;22;20023;-87
2023/12/15 05:44:22;;;;;;;46.00;20.90;;;7.50;99.90;;;;;;6303083;22;20114;-88
2023/12/15 05:46:49;;;;;;;46.83;21.35;;;7.50;99.90;;;;;;6303103;22;20019;-87
2023/12/15 05:49:15;;;;;;;44.05;20.85;;;7.50;99.90;;;;;;6304941;22;20384;-87
2023/12/15 05:51:49;;;;;;;50.85;22.63;;;7.50;99.90;;;;;;6302893;22;20022;-86
2023/12/15 05:54:15;;;;;;;50.25;22.63;;;7.50;99.90;;;;;;6304271;22;20015;-88
2023/12/15 05:56:41;;;;;;;58.03;22.85;;;7.50;99.90;;;;;;6304698;22;20078;-87
2023/12/15 05:59:06;;;;;;;45.72;21.60;;;7.50;99.90;;;;;;6304544;22;20015;-87
2023/12/15 06:01:32;;;;;;;43.13;21.90;;;7.50;99.90;;;;;;6302561;22;20451;-87
2023/12/15 06:03:58;;;;;;;46.45;21.33;;;7.50;99.90;;;;;;6302479;22;20439;-82
2023/12/15 06:06:23;;;;;;;44.47;20.67;;;7.50;99.90;;;;;;6301455;22;20023;-81
2023/12/15 06:08:50;;;;;;;51.63;23.27;;;7.50;99.90;;;;;;6301224;22;20026;-82
2023/12/15 06:11:15;;;;;;;52.00;21.63;;;7.50;99.90;;;;;;6301247;22;20145;-81
2023/12/15 06:13:41;;;;;;;46.92;21.35;;;7.50;99.90;;;;;;6301528;22;20049;-81
2023/12/15 06:16:08;;;;;;;46.50;20.90;;;7.50;99.90;;;;;;6301485;22;20023;-81
2023/12/15 06:18:34;;;;;;;45.33;21.27;;;7.50;99.90;;;;;;6301629;22;20011;-81
2023/12/15 06:20:59;;;;;;;50.63;20.90;;;7.50;99.90;;;;;;6301850;22;20014;-81
2023/12/15 06:23:25;;;;;;;47.42;20.60;;;7.50;99.90;;;;;;6302294;22;20023;-81
2023/12/15 06:25:51;;;;;;;48.25;21.35;;;7.50;99.90;;;;;;6302671;22;20023;-81
2023/12/15 06:28:16;;;;;;;50.47;21.33;;;7.50;99.90;;;;;;6301826;22;20026;-81
2023/12/15 06:30:42;;;;;;;54.40;21.10;;;7.40;99.90;;;;;;6301286;22;20030;-82
2023/12/15 06:33:08;;;;;;;51.97;21.35;;;7.50;99.90;;;;;;6301414;22;20329;-81
2023/12/15 06:35:33;;;;;;;46.05;20.42;;;7.50;99.90;;;;;;6301074;22;20012;-81
2023/12/15 06:38:00;;;;;;;46.30;20.17;;;7.50;99.90;;;;;;6300914;22;20011;-80
2023/12/15 06:40:25;;;;;;;44.17;19.80;;;7.50;99.90;;;;;;6301251;22;20018;-81
2023/12/15 06:42:51;;;;;;;51.45;21.77;;;7.50;99.90;;;;;;6303269;22;20015;-82
2023/12/15 06:45:17;;;;;;;43.05;19.63;;;7.50;99.90;;;;;;6303225;22;20098;-81
2023/12/15 06:47:42;;;;;;;46.42;19.58;;;7.60;99.90;;;;;;6302453;22;20430;-87
2023/12/15 06:50:09;;;;;;;45.28;18.83;;;7.60;99.90;;;;;;6301982;22;20051;-85
2023/12/15 06:52:35;;;;;;;48.10;20.60;;;7.50;99.90;;;;;;6301916;22;20015;-86
2023/12/15 06:55:04;;;;;;;45.50;21.10;;;7.50;99.90;;;;;;6302439;22;20146;-86
2023/12/15 06:57:31;;;;;;;44.55;19.70;;;7.50;99.90;;;;;;6276433;22;20068;-87
2023/12/15 06:59:56;;;;;;;40.47;20.35;;;7.50;99.90;;;;;;6303918;22;20164;-85
2023/12/15 07:02:22;;;;;;;46.17;19.58;;;7.50;99.90;;;;;;6302411;22;20063;-85
2023/12/15 07:04:48;;;;;;;49.78;20.13;;;7.60;99.90;;;;;;6301689;22;20023;-83
2023/12/15 07:07:13;;;;;;;45.20;20.25;;;7.50;99.90;;;;;;6301601;22;20359;-84
2023/12/15 07:09:39;;;;;;;42.65;19.58;;;7.50;99.90;;;;;;6303971;22;20011;-84
2023/12/15 07:12:05;;;;;;;46.00;19.30;;;7.50;99.90;;;;;;6303924;22;20038;-85
2023/12/15 07:14:31;;;;;;;42.00;21.35;;;7.60;99.90;;;;;;6304089;22;20068;-83
2023/12/15 07:16:57;;;;;;;52.83;20.02;;;7.60;99.90;;;;;;6303716;22;20542;-82
2023/12/15 07:19:22;;;;;;;39.22;19.38;;;7.60;99.90;;;;;;6303188;22;20034;-83
2023/12/15 07:21:48;;;;;;;43.50;19.67;;;7.50;99.90;;;;;;6308991;22;20007;-83
2023/12/15 07:24:14;;;;;;;44.42;20.00;;;7.50;99.90;;;;;;6308375;22;20046;-83
2023/12/15 07:26:39;;;;;;;47.83;18.98;;;7.50;99.90;;;;;;6310806;22;20459;-83
2023/12/15 07:29:06;;;;;;;46.15;19.67;;;7.60;99.90;;;;;;6310508;22;20094;-83
2023/12/15 07:31:32;;;;;;;41.45;20.83;;;7.50;99.90;;;;;;6308732;22;20110;-82
2023/12/15 07:33:57;;;;;;;48.53;19.92;;;7.60;99.90;;;;;;6308882;22;20027;-82
2023/12/15 07:36:23;;;;;;;49.33;20.38;;;7.50;99.90;;;;;;6308877;22;20026;-82
2023/12/15 07:38:49;;;;;;;45.70;19.85;;;7.50;99.90;;;;;;6313189;22;20012;-83
2023/12/15 07:41:15;;;;;;;53.10;20.50;;;7.60;99.90;;;;;;6310667;22;20607;-84
2023/12/15 07:43:40;;;;;;;50.15;20.20;;;7.50;99.90;;;;;;6305722;22;20082;-84
2023/12/15 07:46:18;;;;;;;42.92;20.92;;;7.60;99.90;;;;;;6303296;22;20675;-83
2023/12/15 07:48:44;;;;;;;42.90;20.23;;;7.60;99.90;;;;;;6305039;22;20019;-82
2023/12/15 07:51:18;;;;;;;45.60;20.77;;;7.60;99.90;;;;;;6304552;22;20128;-82
2023/12/15 07:53:44;;;;;;;43.88;19.25;;;7.60;99.90;;;;;;6303374;22;20017;-83
2023/12/15 07:56:22;;;;;;;48.42;22.95;;;7.60;99.90;;;;;;6303429;22;20086;-83
2023/12/15 07:58:49;;;;;;;49.08;22.80;;;7.60;99.90;;;;;;6303002;22;20068;-82
2023/12/15 08:01:17;;;;;;;49.08;23.08;;;7.60;99.90;;;;;;6302867;22;20015;-81
2023/12/15 08:03:42;;;;;;;45.10;20.35;;;7.60;99.90;;;;;;6304916;22;20055;-81
2023/12/15 08:06:08;;;;;;;42.47;19.27;;;7.60;99.90;;;;;;6304301;22;20022;-81
2023/12/15 08:08:34;;;;;;;46.78;19.52;;;7.60;99.90;;;;;;6304722;22;20380;-81
2023/12/15 08:10:59;;;;;;;49.20;20.48;;;7.60;99.90;;;;;;6276835;22;20069;-81
2023/12/15 08:13:25;;;;;;;50.03;19.70;;;7.60;99.90;;;;;;6302632;22;20114;-82
2023/12/15 08:15:50;;;;;;;44.90;21.15;;;7.70;99.90;;;;;;6304200;22;20038;-82
2023/12/15 08:18:16;;;;;;;44.60;18.90;;;7.60;99.90;;;;;;6302684;22;20098;-82
2023/12/15 08:20:45;;;;;;;40.75;19.27;;;7.70;99.90;;;;;;6302240;22;20031;-78
2023/12/15 08:23:10;;;;;;;43.47;19.75;;;7.70;99.90;;;;;;6302142;22;20015;-79
2023/12/15 08:25:36;;;;;;;38.47;18.10;;;7.70;99.90;;;;;;6302471;22;20022;-82
2023/12/15 08:28:05;;;;;;;45.50;20.40;;;7.70;99.90;;;;;;6304830;22;20019;-83
2023/12/15 08:30:30;;;;;;;42.20;20.58;;;7.70;99.90;;;;;;6302551;22;20148;-83
2023/12/15 08:32:58;;;;;;;45.58;19.17;;;7.70;99.90;;;;;;6302029;22;20030;-78
2023/12/15 08:35:24;;;;;;;38.33;18.67;;;7.70;99.90;;;;;;6302784;22;20060;-87
2023/12/15 08:37:49;;;;;;;41.10;18.90;;;7.70;99.90;;;;;;6303480;22;20007;-85
2023/12/15 08:40:15;;;;;;;39.92;18.25;;;7.70;99.90;;;;;;6302453;22;20015;-79
2023/12/15 08:42:41;;;;;;;38.00;18.13;;;7.70;99.90;;;;;;6302144;22;20023;-78
2023/12/15 08:45:07;;;;;;;40.15;18.02;;;7.70;99.90;;;;;;6302346;22;20011;-79
2023/12/15 08:47:33;;;;;;;36.58;18.00;;;7.70;99.90;;;;;;6301827;22;20398;-79
2023/12/15 08:49:58;;;;;;;36.17;18.05;;;7.70;99.90;;;;;;6301796;22;20015;-79
2023/12/15 08:52:24;;;;;;;46.60;19.75;;;7.80;99.90;;;;;;6302064;22;20022;-79
2023/12/15 08:54:50;;;;;;;43.03;18.00;;;7.70;99.90;;;;;;6304231;22;20072;-79
2023/12/15 08:57:15;;;;;;;38.83;17.42;;;7.70;99.90;;;;;;6301696;22;20015;-78
2023/12/15 08:59:42;;;;;;;33.75;18.13;;;7.70;99.90;;;;;;6302011;22;20064;-79
2023/12/15 09:02:08;;;;;;;34.47;16.10;;;7.70;99.90;;;;;;6302002;22;20018;-79
2023/12/15 09:04:34;;;;;;;35.03;16.70;;;7.70;99.90;;;;;;6301906;22;20403;-79
2023/12/15 09:07:00;;;;;;;39.42;17.45;;;7.80;99.90;;;;;;6301955;22;20019;-79
2023/12/15 09:09:26;;;;;;;38.30;17.85;;;7.80;99.90;;;;;;6301939;22;20351;-79
2023/12/15 09:11:52;;;;;;;33.65;15.32;;;7.80;99.90;;;;;;6302021;22;20625;-77
2023/12/15 09:14:17;;;;;;;40.95;17.63;;;7.80;99.90;;;;;;6302005;22;20431;-77
2023/12/15 09:16:43;;;;;;;29.52;14.45;;;7.80;99.90;;;;;;6276240;22;20072;-77
2023/12/15 09:19:09;;;;;;;27.30;15.68;;;7.80;99.90;;;;;;6301790;22;20019;-83
2023/12/15 09:21:35;;;;;;;33.10;15.70;;;7.80;99.90;;;;;;6303670;22;20050;-78
2023/12/15 09:24:00;;;;;;;28.02;14.23;;;7.80;99.90;;;;;;6301910;22;20199;-82
2023/12/15 09:26:26;;;;;;;39.45;15.75;;;7.90;99.90;;;;;;6301830;22;20102;-77
2023/12/15 09:28:53;;;;;;;30.20;14.23;;;8.00;99.90;;;;;;6301670;22;20069;-78
2023/12/15 09:31:19;;;;;;;33.10;14.38;;;7.90;99.90;;;;;;6303254;22;20025;-77
2023/12/15 09:33:44;;;;;;;35.60;12.93;;;8.00;99.90;;;;;;6301529;22;20054;-78
2023/12/15 09:36:11;;;;;;;39.45;14.30;;;8.00;99.90;;;;;;6301489;22;20490;-80
2023/12/15 09:38:36;;;;;;;26.63;12.95;;;8.00;99.90;;;;;;6301820;22;20489;-85
2023/12/15 09:41:02;;;;;;;35.20;13.02;;;8.10;99.90;;;;;;6301973;22;20015;-83
2023/12/15 09:43:28;;;;;;;34.85;12.02;;;8.10;99.90;;;;;;6300417;22;20392;-83
2023/12/15 09:45:57;;;;;;;30.17;13.32;;;8.10;99.90;;;;;;6301629;22;20015;-83
2023/12/15 09:48:23;;;;;;;32.10;13.07;;;8.20;99.90;;;;;;6301586;22;20061;-83
2023/12/15 09:50:55;;;;;;;31.38;12.18;;;8.10;99.90;;;;;;6301651;22;20098;-82
2023/12/15 09:53:22;;;;;;;30.65;12.18;;;8.10;99.90;;;;;;6303156;22;20382;-83
2023/12/15 09:55:50;;;;;;;39.28;12.05;;;8.20;99.90;;;;;;6301256;22;20015;-82
2023/12/15 09:58:17;;;;;;;24.77;11.18;;;8.20;99.90;;;;;;6301171;22;20128;-82
2023/12/15 10:00:42;;;;;;;24.23;11.20;;;8.20;99.90;;;;;;6301883;22;20021;-82
2023/12/15 10:03:08;;;;;;;32.80;13.55;;;8.20;99.90;;;;;;6300547;22;20090;-83
2023/12/15 10:05:34;;;;;;;27.63;11.38;;;8.30;99.90;;;;;;6302695;22;20015;-77
2023/12/15 10:08:00;;;;;;;36.38;11.73;;;8.30;99.90;;;;;;6297605;22;20090;-77
2023/12/15 10:10:26;;;;;;;31.33;10.93;;;8.30;99.90;;;;;;6302118;22;20030;-77
2023/12/15 10:12:56;;;;;;;39.08;12.60;;;8.30;99.90;;;;;;6300055;22;20030;-78
2023/12/15 10:15:22;;;;;;;35.80;13.05;;;8.30;99.90;;;;;;6300544;22;20395;-77
2023/12/15 10:17:49;;;;;;;26.20;11.02;;;8.30;99.90;;;;;;6300796;22;20023;-77
2023/12/15 10:20:15;;;;;;;30.35;11.70;;;8.40;99.90;;;;;;6300515;22;20011;-80
2023/12/15 10:22:41;;;;;;;32.53;11.20;;;8.40;99.90;;;;;;6300070;22;20018;-78
2023/12/15 10:25:21;;;;;;;36.33;10.45;;;8.40;99.90;;;;;;6300843;22;20023;-78
2023/12/15 10:27:51;;;;;;;29.88;9.52;;;8.40;99.90;;;;;;6300886;22;20019;-78
2023/12/15 10:30:18;;;;;;;24.40;9.38;;;8.50;99.90;;;;;;6300418;22;20435;-78
2023/12/15 10:32:44;;;;;;;24.00;7.95;;;8.50;99.90;;;;;;6300267;22;20019;-77
2023/12/15 10:35:10;;;;;;;42.10;10.40;;;8.60;99.90;;;;;;6302759;22;20185;-77
2023/12/15 10:37:37;;;;;;;27.88;8.90;;;8.70;99.90;;;;;;6300372;22;20019;-75
2023/12/15 10:40:04;;;;;;;28.77;9.30;;;8.60;99.90;;;;;;6300819;22;20022;-76
2023/12/15 10:42:30;;;;;;;24.02;9.27;;;8.60;99.90;;;;;;6300572;22;20019;-76
2023/12/15 10:45:06;;;;;;;27.52;9.43;;;8.60;99.90;;;;;;6302413;22;20015;-76
2023/12/15 10:47:33;;;;;;;30.48;10.35;;;8.60;99.90;;;;;;6300707;22;20459;-76
2023/12/15 10:49:59;;;;;;;29.23;9.68;;;8.70;99.90;;;;;;6300780;22;20372;-76
2023/12/15 10:52:26;;;;;;;33.42;9.57;;;8.70;99.90;;;;;;6300752;22;20027;-76
2023/12/15 10:54:54;;;;;;;31.67;8.57;;;8.60;99.90;;;;;;6300525;22;20023;-76
2023/12/15 10:57:20;;;;;;;27.48;9.00;;;8.70;99.90;;;;;;6300256;22;20448;-76
2023/12/15 10:59:48;;;;;;;36.83;12.15;;;8.80;99.90;;;;;;6300300;22;20090;-76
2023/12/15 11:02:17;;;;;;;36.58;10.93;;;8.80;99.90;;;;;;6300486;22;20386;-76
2023/12/15 11:04:43;;;;;;;40.47;9.23;;;8.80;99.90;;;;;;6300580;22;20030;-77
2023/12/15 11:07:09;;;;;;;39.67;11.43;;;8.80;99.90;;;;;;6300446;22;20011;-77
2023/12/15 11:09:36;;;;;;;34.22;8.98;;;8.80;99.90;;;;;;6302525;22;20071;-76
2023/12/15 11:12:30;;;;;;;26.42;8.10;;;8.80;99.90;;;;;;6300164;22;20818;-77
2023/12/15 11:14:58;;;;;;;29.05;9.90;;;8.80;99.90;;;;;;6300210;22;20019;-76
2023/12/15 11:17:24;;;;;;;29.42;8.07;;;8.80;99.90;;;;;;6300177;22;20026;-76
2023/12/15 11:19:56;;;;;;;23.33;7.82;;;8.80;99.90;;;;;;6300927;22;20022;-77
2023/12/15 11:22:21;;;;;;;32.00;8.73;;;8.80;99.90;;;;;;6300755;22;20027;-78
2023/12/15 11:24:47;;;;;;;27.50;7.53;;;8.80;99.90;;;;;;6300724;22;20019;-75
2023/12/15 11:27:15;;;;;;;26.20;7.05;;;8.90;99.90;;;;;;6300671;22;20190;-76
2023/12/15 11:29:40;;;;;;;34.60;7.85;;;8.90;99.90;;;;;;6300584;22;20098;-76
2023/12/15 11:32:28;;;;;;;23.95;6.25;;;8.90;99.90;;;;;;6300521;22;20030;-75
2023/12/15 11:34:53;;;;;;;25.73;9.05;;;8.90;99.90;;;;;;6300461;22;20078;-81
2023/12/15 11:37:20;;;;;;;40.22;11.23;;;9.00;99.90;;;;;;6300274;22;20396;-77
2023/12/15 11:39:56;;;;;;;44.72;12.07;;;9.00;99.90;;;;;;6300688;22;20082;-76
2023/12/15 11:42:23;;;;;;;31.17;8.23;;;9.00;99.90;;;;;;6300410;22;20026;-76
2023/12/15 11:44:49;;;;;;;37.30;9.85;;;9.00;99.90;;;;;;6299989;22;20019;-77
2023/12/15 11:47:15;;;;;;;30.40;11.02;;;9.00;99.90;;;;;;6300305;22;20386;-77
2023/12/15 11:49:42;;;;;;;33.03;8.57;;;9.00;99.90;;;;;;6300173;22;20023;-77
2023/12/15 11:52:15;;;;;;;29.70;8.77;;;9.00;99.90;;;;;;6300163;22;20026;-76
2023/12/15 11:54:41;;;;;;;26.83;7.35;;;9.00;99.90;;;;;;6300089;22;20027;-77
2023/12/15 11:57:07;;;;;;;25.52;6.93;;;9.00;99.90;;;;;;6301371;22;20105;-84
2023/12/15 11:59:40;;;;;;;32.25;8.85;;;8.90;99.90;;;;;;6301126;22;20020;-85
2023/12/15 12:02:06;;;;;;;28.35;6.15;;;9.00;99.90;;;;;;6302584;22;20098;-86
2023/12/15 12:04:32;;;;;;;27.63;6.22;;;9.00;99.90;;;;;;6301134;22;20535;-86
2023/12/15 12:06:58;;;;;;;28.02;7.35;;;9.00;99.90;;;;;;6302694;22;20018;-89
2023/12/15 12:09:24;;;;;;;26.65;7.97;;;8.90;99.90;;;;;;6302390;22;20019;-87
2023/12/15 12:11:55;;;;;;;30.33;7.47;;;9.00;99.90;;;;;;6302610;22;20015;-88
2023/12/15 12:14:21;;;;;;;27.85;8.00;;;9.10;99.90;;;;;;6303318;22;20011;-85
2023/12/15 12:16:51;;;;;;;25.08;8.18;;;8.90;99.90;;;;;;6302734;22;20015;-83
2023/12/15 12:19:17;;;;;;;32.78;9.88;;;9.10;99.90;;;;;;6300973;22;20073;-83
2023/12/15 12:21:43;;;;;;;27.17;6.28;;;9.00;99.90;;;;;;6300858;22;20011;-83
2023/12/15 12:24:08;;;;;;;33.03;6.22;;;9.00;99.90;;;;;;6302495;22;20011;-85
2023/12/15 12:26:35;;;;;;;28.80;7.28;;;9.00;99.90;;;;;;6302158;22;20019;-83
2023/12/15 12:29:00;;;;;;;31.98;6.45;;;9.10;99.90;;;;;;6302409;22;20019;-83
2023/12/15 12:31:26;;;;;;;23.25;6.05;;;9.00;99.90;;;;;;6302697;22;20019;-81
2023/12/15 12:33:52;;;;;;;30.52;6.30;;;9.00;99.90;;;;;;6302301;22;20023;-89